National Weather Service Raw Text Product

Displaying AFOS PIL: TAFMCW Received: 2017-12-07 23:30 UTC


967 
FTUS43 KDMX 072330
TAFMCW
TAF
KMCW 072330Z 0800/0824 25009KT P6SM FEW250
     FM080800 26008KT P6SM VCSH OVC070
     FM081600 30010KT P6SM BKN250
     FM082300 28012KT P6SM BKN040=